createdAt,value
2023-05-09T00:00:47.231Z,11.85
2023-05-09T00:03:14.604Z,11.86
2023-05-09T00:05:42.087Z,11.95
2023-05-09T00:08:08.988Z,11.80
2023-05-09T00:10:35.956Z,11.82
2023-05-09T00:13:02.938Z,11.74
2023-05-09T00:15:29.808Z,11.77
2023-05-09T00:17:56.503Z,11.54
2023-05-09T00:20:23.295Z,11.67
2023-05-09T00:22:50.024Z,11.51
2023-05-09T00:25:16.908Z,11.47
2023-05-09T00:27:43.890Z,11.42
2023-05-09T00:30:11.035Z,11.47
2023-05-09T00:32:37.790Z,11.45
2023-05-09T00:35:05.430Z,11.50
2023-05-09T00:37:32.171Z,11.37
2023-05-09T00:39:58.876Z,11.38
2023-05-09T00:42:25.615Z,11.26
2023-05-09T00:44:52.303Z,11.25
2023-05-09T00:47:19.387Z,11.18
2023-05-09T00:49:46.181Z,11.27
2023-05-09T00:52:12.853Z,11.20
2023-05-09T00:54:39.808Z,10.95
2023-05-09T00:57:06.780Z,10.87
2023-05-09T00:59:33.480Z,10.75
2023-05-09T01:02:00.196Z,10.98
2023-05-09T01:04:26.980Z,10.85
2023-05-09T01:07:29.438Z,10.80
2023-05-09T01:10:02.224Z,10.78
2023-05-09T01:12:41.334Z,10.77
2023-05-09T01:15:19.338Z,10.56
2023-05-09T01:17:56.396Z,10.66
2023-05-09T01:20:54.497Z,10.79
2023-05-09T01:24:04.744Z,10.75
2023-05-09T01:26:46.885Z,10.65
2023-05-09T01:29:35.668Z,10.72
2023-05-09T01:32:06.487Z,10.66
2023-05-09T01:34:35.300Z,10.70
2023-05-09T01:37:04.431Z,10.60
2023-05-09T01:39:33.486Z,10.53
2023-05-09T01:42:03.205Z,10.48
2023-05-09T01:44:40.588Z,10.37
2023-05-09T01:47:08.388Z,10.46
2023-05-09T01:49:39.007Z,10.46
2023-05-09T01:52:10.597Z,10.48
2023-05-09T01:54:37.989Z,10.56
2023-05-09T01:57:05.288Z,10.58
2023-05-09T01:59:33.665Z,10.44
2023-05-09T02:02:01.073Z,10.26
2023-05-09T02:04:28.708Z,10.15
2023-05-09T02:06:56.065Z,10.31
2023-05-09T02:09:22.871Z,10.23
2023-05-09T02:11:49.687Z,10.22
2023-05-09T02:14:16.578Z,10.21
2023-05-09T02:16:43.501Z,10.11
2023-05-09T02:19:10.367Z,10.00
2023-05-09T02:21:37.048Z,9.87
2023-05-09T02:24:04.279Z,9.92
2023-05-09T02:26:31.156Z,9.90
2023-05-09T02:28:59.071Z,10.00
2023-05-09T02:31:26.358Z,9.79
2023-05-09T02:33:53.818Z,9.68
2023-05-09T02:36:21.238Z,9.94
2023-05-09T02:38:48.389Z,9.89
2023-05-09T02:41:18.159Z,9.85
2023-05-09T02:43:45.341Z,9.89
2023-05-09T02:46:12.071Z,9.73
2023-05-09T02:48:38.849Z,9.74
2023-05-09T02:51:05.584Z,9.83
2023-05-09T02:53:32.297Z,9.78
2023-05-09T02:55:59.022Z,9.78
2023-05-09T02:58:25.789Z,9.78
2023-05-09T03:00:52.460Z,9.83
2023-05-09T03:03:19.431Z,9.88
2023-05-09T03:05:46.625Z,9.84
2023-05-09T03:08:13.325Z,9.78
2023-05-09T03:10:40.079Z,9.75
2023-05-09T03:13:06.871Z,9.89
2023-05-09T03:15:33.618Z,9.82
2023-05-09T03:18:00.383Z,9.86
2023-05-09T03:20:27.760Z,9.71
2023-05-09T03:22:54.576Z,9.71
2023-05-09T03:25:21.450Z,9.73
2023-05-09T03:27:48.275Z,9.74
2023-05-09T03:30:15.227Z,9.87
2023-05-09T03:32:41.979Z,9.74
2023-05-09T03:35:09.215Z,9.71
2023-05-09T03:37:36.129Z,9.64
2023-05-09T03:40:02.874Z,9.63
2023-05-09T03:42:29.572Z,9.71
2023-05-09T03:44:56.249Z,9.62
2023-05-09T03:47:23.069Z,9.57
2023-05-09T03:49:49.762Z,9.59
2023-05-09T03:52:16.595Z,9.62
2023-05-09T03:54:43.334Z,9.47
2023-05-09T03:57:10.013Z,9.52
2023-05-09T03:59:36.688Z,9.48
2023-05-09T04:02:03.551Z,9.63
2023-05-09T04:04:30.326Z,9.54
2023-05-09T04:06:57.278Z,9.19
2023-05-09T04:09:24.031Z,9.30
2023-05-09T04:11:50.871Z,9.31
2023-05-09T04:14:18.527Z,9.44
2023-05-09T04:16:45.375Z,9.41
2023-05-09T04:19:12.396Z,9.31
2023-05-09T04:21:39.092Z,9.37
2023-05-09T04:24:06.583Z,9.44
2023-05-09T04:26:33.343Z,9.55
2023-05-09T04:29:00.049Z,9.53
2023-05-09T04:31:26.919Z,9.52
2023-05-09T04:33:53.786Z,9.64
2023-05-09T04:36:20.558Z,9.79
2023-05-09T04:38:47.306Z,9.85
2023-05-09T04:41:14.277Z,9.95
2023-05-09T04:43:40.973Z,10.01
2023-05-09T04:46:08.191Z,10.06
2023-05-09T04:48:35.961Z,10.24
2023-05-09T04:51:02.807Z,10.14
2023-05-09T04:53:29.929Z,10.26
2023-05-09T04:55:56.676Z,10.38
2023-05-09T04:58:23.410Z,10.40
2023-05-09T05:00:50.333Z,10.57
2023-05-09T05:03:18.262Z,10.60
2023-05-09T05:05:45.244Z,10.68
2023-05-09T05:08:12.122Z,10.82
2023-05-09T05:10:38.846Z,10.90
2023-05-09T05:13:05.748Z,11.03
2023-05-09T05:15:32.454Z,11.04
2023-05-09T05:17:59.197Z,11.12
2023-05-09T05:20:25.941Z,11.23
2023-05-09T05:22:55.582Z,11.24
2023-05-09T05:25:22.556Z,11.39
2023-05-09T05:27:50.386Z,11.49
2023-05-09T05:30:17.132Z,11.51
2023-05-09T05:32:44.307Z,11.68
2023-05-09T05:35:14.339Z,11.82
2023-05-09T05:37:41.936Z,11.74
2023-05-09T05:40:09.174Z,11.98
2023-05-09T05:42:36.202Z,12.19
2023-05-09T05:45:05.135Z,12.26
2023-05-09T05:47:36.683Z,12.29
2023-05-09T05:50:09.354Z,12.35
2023-05-09T05:52:36.147Z,12.46
2023-05-09T05:55:02.855Z,12.44
2023-05-09T05:57:29.571Z,12.37
2023-05-09T05:59:56.263Z,12.64
2023-05-09T06:02:23.177Z,12.74
2023-05-09T06:04:49.947Z,12.90
2023-05-09T06:07:17.543Z,12.84
2023-05-09T06:09:44.250Z,13.01
2023-05-09T06:12:12.184Z,13.13
2023-05-09T06:14:38.873Z,13.24
2023-05-09T06:17:05.854Z,13.37
2023-05-09T06:19:32.642Z,13.50
2023-05-09T06:21:59.712Z,13.55
2023-05-09T06:24:35.958Z,13.60
2023-05-09T06:27:04.125Z,13.80
2023-05-09T06:29:31.157Z,13.92
2023-05-09T06:31:58.144Z,14.03
2023-05-09T06:34:24.912Z,14.07
2023-05-09T06:36:51.622Z,14.00
2023-05-09T06:39:18.296Z,14.18
2023-05-09T06:41:45.362Z,14.36
2023-05-09T06:44:12.072Z,14.59
2023-05-09T06:46:39.760Z,14.68
2023-05-09T06:49:06.763Z,14.99
2023-05-09T06:51:33.538Z,14.92
2023-05-09T06:54:01.324Z,15.10
2023-05-09T06:56:28.141Z,15.22
2023-05-09T06:58:54.871Z,15.37
2023-05-09T07:01:21.588Z,15.47
2023-05-09T07:03:48.557Z,15.62
2023-05-09T07:06:15.375Z,15.80
2023-05-09T07:08:42.118Z,15.93
2023-05-09T07:11:08.922Z,16.05
2023-05-09T07:13:35.609Z,16.16
2023-05-09T07:16:02.375Z,16.30
2023-05-09T07:18:30.080Z,16.46
2023-05-09T07:20:56.911Z,16.54
2023-05-09T07:23:23.672Z,16.63
2023-05-09T07:25:50.451Z,16.71
2023-05-09T07:28:17.131Z,16.78
2023-05-09T07:30:44.062Z,16.94
2023-05-09T07:33:11.323Z,16.98
2023-05-09T07:35:38.034Z,17.09
2023-05-09T07:38:07.152Z,17.18
2023-05-09T07:40:36.649Z,17.18
2023-05-09T07:43:03.389Z,17.33
2023-05-09T07:45:30.150Z,17.42
2023-05-09T07:47:56.920Z,17.45
2023-05-09T07:50:23.880Z,17.44
2023-05-09T07:52:51.559Z,17.33
2023-05-09T07:55:18.603Z,17.14
2023-05-09T07:57:45.627Z,17.03
2023-05-09T08:00:13.068Z,17.10
2023-05-09T08:02:40.347Z,17.25
2023-05-09T08:05:08.359Z,17.53
2023-05-09T08:07:36.027Z,17.73
2023-05-09T08:10:03.277Z,17.81
2023-05-09T08:12:30.272Z,18.00
2023-05-09T08:14:57.264Z,18.15
2023-05-09T08:17:24.089Z,18.38
2023-05-09T08:19:50.949Z,18.50
2023-05-09T08:22:19.011Z,18.56
2023-05-09T08:24:46.747Z,18.69
2023-05-09T08:27:14.319Z,18.54
2023-05-09T08:29:41.330Z,18.69
2023-05-09T08:32:11.786Z,18.90
2023-05-09T08:34:38.803Z,18.95
2023-05-09T08:37:05.566Z,18.89
2023-05-09T08:39:35.414Z,18.66
2023-05-09T08:42:02.699Z,18.72
2023-05-09T08:44:30.308Z,18.48
2023-05-09T08:47:00.526Z,18.39
2023-05-09T08:49:28.563Z,18.31
2023-05-09T08:51:56.202Z,18.38
2023-05-09T08:54:23.877Z,18.31
2023-05-09T08:56:51.313Z,18.24
2023-05-09T08:59:19.058Z,18.32
2023-05-09T09:01:46.081Z,18.29
2023-05-09T09:04:12.925Z,18.14
2023-05-09T09:06:40.819Z,18.19
2023-05-09T09:09:09.796Z,18.33
2023-05-09T09:11:37.179Z,18.45
2023-05-09T09:14:13.758Z,18.53
2023-05-09T09:16:42.039Z,18.59
2023-05-09T09:19:13.881Z,18.70
2023-05-09T09:21:47.681Z,18.77
2023-05-09T09:24:14.827Z,18.79
2023-05-09T09:26:49.293Z,18.90
2023-05-09T09:29:17.607Z,19.24
2023-05-09T09:31:46.539Z,19.53
2023-05-09T09:34:15.698Z,19.77
2023-05-09T09:36:42.484Z,19.68
2023-05-09T09:39:09.693Z,19.76
2023-05-09T09:41:40.150Z,19.97
2023-05-09T09:44:18.183Z,19.99
2023-05-09T09:46:53.912Z,20.22
2023-05-09T09:49:26.457Z,20.28
2023-05-09T09:51:57.672Z,20.62
2023-05-09T09:54:28.025Z,20.72
2023-05-09T09:56:55.357Z,20.66
2023-05-09T09:59:25.516Z,20.66
2023-05-09T10:02:08.369Z,20.70
2023-05-09T10:04:37.024Z,20.79
2023-05-09T10:07:09.042Z,20.96
2023-05-09T10:09:38.263Z,21.00
2023-05-09T10:12:06.671Z,20.99
2023-05-09T10:14:35.641Z,20.79
2023-05-09T10:17:04.146Z,20.72
2023-05-09T10:19:31.423Z,20.65
2023-05-09T10:22:01.356Z,20.55
2023-05-09T10:25:04.491Z,20.46
2023-05-09T10:27:33.428Z,20.56
2023-05-09T10:30:14.291Z,20.61
2023-05-09T10:33:11.704Z,20.45
2023-05-09T10:35:45.411Z,20.36
2023-05-09T10:38:13.060Z,20.34
2023-05-09T10:40:42.573Z,20.47
2023-05-09T10:43:09.260Z,20.57
2023-05-09T10:45:36.351Z,20.67
2023-05-09T10:48:08.012Z,20.67
2023-05-09T10:50:37.007Z,20.72
2023-05-09T10:53:14.501Z,20.64
2023-05-09T10:56:07.730Z,20.62
2023-05-09T10:58:37.616Z,20.68
2023-05-09T11:01:05.212Z,20.80
2023-05-09T11:03:59.235Z,21.08
2023-05-09T11:06:51.804Z,21.26
2023-05-09T11:09:37.369Z,21.50
2023-05-09T11:12:12.435Z,21.58
2023-05-09T11:14:49.097Z,21.57
2023-05-09T11:17:40.461Z,21.59
2023-05-09T11:20:09.312Z,21.72
2023-05-09T11:22:45.273Z,21.91
2023-05-09T11:25:14.399Z,21.75
2023-05-09T11:27:43.751Z,21.69
2023-05-09T11:30:18.230Z,21.55
2023-05-09T11:32:55.501Z,21.62
2023-05-09T11:35:23.796Z,21.79
2023-05-09T11:37:53.154Z,21.90
2023-05-09T11:40:21.752Z,22.10
2023-05-09T11:42:50.477Z,22.30
2023-05-09T11:45:17.961Z,22.36
2023-05-09T11:47:46.080Z,22.27
2023-05-09T11:50:13.890Z,22.31
2023-05-09T11:52:41.858Z,22.54
2023-05-09T11:55:12.404Z,22.74
2023-05-09T11:57:46.109Z,22.69
2023-05-09T12:00:14.434Z,22.86
2023-05-09T12:02:44.432Z,23.02
2023-05-09T12:05:13.548Z,23.25
2023-05-09T12:07:41.511Z,23.38
2023-05-09T12:10:09.576Z,23.25
2023-05-09T12:12:37.372Z,22.94
2023-05-09T12:15:08.359Z,23.05
2023-05-09T12:17:36.003Z,23.06
2023-05-09T12:20:06.114Z,23.00
2023-05-09T12:22:33.705Z,22.95
2023-05-09T12:25:05.838Z,22.99
2023-05-09T12:27:33.351Z,22.79
2023-05-09T12:30:09.213Z,22.87
2023-05-09T12:32:36.951Z,22.91
2023-05-09T12:35:03.888Z,23.01
2023-05-09T12:37:32.976Z,23.08
2023-05-09T12:40:15.648Z,22.91
2023-05-09T12:42:46.412Z,22.94
2023-05-09T12:45:14.120Z,22.89
2023-05-09T12:47:42.502Z,23.06
2023-05-09T12:50:12.016Z,23.09
2023-05-09T12:52:50.574Z,23.17
2023-05-09T12:55:25.579Z,23.19
2023-05-09T12:58:03.794Z,23.29
2023-05-09T13:00:44.404Z,23.27
2023-05-09T13:03:25.614Z,23.12
2023-05-09T13:05:57.482Z,23.32
2023-05-09T13:08:24.185Z,23.31
2023-05-09T13:10:53.665Z,23.38
2023-05-09T13:13:28.775Z,23.35
2023-05-09T13:15:55.827Z,23.50
2023-05-09T13:18:24.459Z,23.43
2023-05-09T13:20:52.206Z,23.62
2023-05-09T13:23:19.178Z,23.76
2023-05-09T13:25:46.027Z,23.54
2023-05-09T13:28:12.935Z,23.51
2023-05-09T13:30:39.792Z,23.56
2023-05-09T13:33:23.915Z,23.70
2023-05-09T13:35:52.257Z,23.74
2023-05-09T13:38:18.955Z,23.75
2023-05-09T13:40:45.695Z,23.77
2023-05-09T13:43:12.401Z,23.88
2023-05-09T13:45:39.419Z,23.91
2023-05-09T13:48:06.506Z,23.86
2023-05-09T13:50:34.100Z,23.91
2023-05-09T13:53:00.839Z,23.95
2023-05-09T13:55:28.004Z,23.96
2023-05-09T13:57:55.307Z,24.01
2023-05-09T14:00:22.474Z,23.82
2023-05-09T14:02:49.269Z,24.00
2023-05-09T14:05:17.143Z,23.81
2023-05-09T14:07:44.071Z,23.95
2023-05-09T14:10:12.297Z,23.94
2023-05-09T14:12:40.533Z,24.03
2023-05-09T14:15:12.265Z,23.85
2023-05-09T14:17:40.161Z,23.87
2023-05-09T14:20:08.450Z,23.83
2023-05-09T14:22:35.203Z,23.93
2023-05-09T14:25:02.025Z,23.96
2023-05-09T14:27:28.744Z,23.93
2023-05-09T14:29:55.601Z,24.03
2023-05-09T14:32:22.464Z,24.03
2023-05-09T14:34:52.257Z,24.15
2023-05-09T14:37:18.983Z,24.16
2023-05-09T14:39:45.915Z,24.11
2023-05-09T14:42:14.341Z,23.92
2023-05-09T14:44:41.979Z,23.95
2023-05-09T14:47:09.938Z,23.95
2023-05-09T14:49:37.314Z,24.21
2023-05-09T14:52:04.102Z,24.14
2023-05-09T14:54:30.979Z,24.28
2023-05-09T14:56:59.791Z,24.17
2023-05-09T14:59:26.516Z,24.22
2023-05-09T15:01:53.246Z,24.03
2023-05-09T15:04:20.011Z,24.00
2023-05-09T15:06:46.880Z,24.04
2023-05-09T15:09:14.269Z,23.98
2023-05-09T15:11:48.211Z,24.12
2023-05-09T15:14:17.038Z,24.04
2023-05-09T15:16:44.073Z,24.03
2023-05-09T15:19:11.086Z,24.11
2023-05-09T15:21:37.994Z,24.24
2023-05-09T15:24:08.182Z,24.42
2023-05-09T15:26:34.927Z,24.34
2023-05-09T15:29:01.663Z,24.07
2023-05-09T15:31:32.941Z,24.17
2023-05-09T15:34:00.738Z,24.35
2023-05-09T15:36:29.700Z,24.30
2023-05-09T15:38:56.530Z,24.38
2023-05-09T15:41:23.577Z,24.37
2023-05-09T15:43:50.557Z,24.32
2023-05-09T15:46:17.339Z,24.27
2023-05-09T15:48:44.492Z,24.35
2023-05-09T15:51:11.594Z,24.41
2023-05-09T15:53:38.374Z,24.34
2023-05-09T15:56:05.427Z,24.33
2023-05-09T15:58:32.274Z,24.30
2023-05-09T16:00:59.029Z,24.23
2023-05-09T16:03:25.883Z,24.30
2023-05-09T16:05:53.217Z,24.40
2023-05-09T16:08:20.113Z,24.33
2023-05-09T16:10:49.245Z,24.34
2023-05-09T16:13:19.086Z,24.42
2023-05-09T16:15:48.188Z,24.47
2023-05-09T16:18:15.000Z,24.47
2023-05-09T16:20:42.249Z,24.59
2023-05-09T16:23:09.043Z,24.69
2023-05-09T16:25:35.728Z,24.76
2023-05-09T16:28:02.625Z,24.62
2023-05-09T16:30:29.748Z,24.45
2023-05-09T16:32:56.665Z,24.30
2023-05-09T16:35:23.547Z,24.15
2023-05-09T16:37:50.215Z,24.06
2023-05-09T16:40:17.233Z,23.94
2023-05-09T16:42:44.153Z,23.76
2023-05-09T16:45:11.323Z,23.82
2023-05-09T16:47:38.003Z,23.66
2023-05-09T16:50:05.332Z,23.59
2023-05-09T16:52:32.086Z,23.36
2023-05-09T16:54:59.608Z,23.27
2023-05-09T16:57:26.316Z,23.11
2023-05-09T16:59:53.704Z,22.95
2023-05-09T17:02:20.499Z,22.87
2023-05-09T17:04:47.536Z,22.87
2023-05-09T17:07:14.764Z,22.85
2023-05-09T17:09:41.825Z,22.77
2023-05-09T17:12:14.984Z,22.70
2023-05-09T17:14:41.731Z,22.56
2023-05-09T17:17:08.403Z,22.50
2023-05-09T17:19:35.157Z,22.47
2023-05-09T17:22:04.628Z,22.42
2023-05-09T17:24:32.649Z,22.36
2023-05-09T17:27:00.236Z,22.29
2023-05-09T17:29:29.535Z,22.28
2023-05-09T17:32:02.464Z,22.07
2023-05-09T17:34:29.743Z,21.98
2023-05-09T17:36:56.763Z,21.86
2023-05-09T17:39:24.102Z,21.88
2023-05-09T17:41:50.860Z,21.79
2023-05-09T17:44:17.591Z,21.73
2023-05-09T17:46:44.483Z,21.71
2023-05-09T17:49:14.248Z,21.66
2023-05-09T17:51:41.364Z,21.63
2023-05-09T17:54:08.360Z,21.55
2023-05-09T17:56:35.184Z,21.47
2023-05-09T17:59:02.158Z,21.35
2023-05-09T18:01:29.238Z,21.34
2023-05-09T18:03:56.808Z,21.21
2023-05-09T18:06:23.757Z,21.03
2023-05-09T18:08:50.441Z,20.98
2023-05-09T18:11:17.156Z,20.95
2023-05-09T18:13:43.904Z,20.86
2023-05-09T18:16:10.876Z,20.72
2023-05-09T18:18:37.613Z,20.53
2023-05-09T18:21:05.618Z,20.51
2023-05-09T18:23:33.367Z,20.46
2023-05-09T18:26:00.226Z,20.34
2023-05-09T18:28:27.687Z,20.28
2023-05-09T18:30:55.856Z,20.19
2023-05-09T18:33:26.823Z,20.11
2023-05-09T18:35:54.745Z,19.97
2023-05-09T18:38:22.047Z,19.92
2023-05-09T18:40:48.886Z,19.64
2023-05-09T18:43:17.392Z,19.42
2023-05-09T18:45:45.320Z,19.40
2023-05-09T18:48:12.641Z,19.21
2023-05-09T18:50:39.668Z,19.09
2023-05-09T18:53:06.403Z,18.96
2023-05-09T18:55:33.125Z,18.93
2023-05-09T18:57:59.884Z,18.78
2023-05-09T19:00:26.771Z,18.76
2023-05-09T19:02:53.529Z,18.52
2023-05-09T19:05:20.762Z,18.52
2023-05-09T19:07:47.711Z,18.21
2023-05-09T19:10:18.173Z,18.18
2023-05-09T19:12:46.314Z,18.20
2023-05-09T19:15:13.080Z,18.08
2023-05-09T19:17:39.796Z,18.01
2023-05-09T19:20:07.254Z,17.86
2023-05-09T19:22:35.401Z,17.79
2023-05-09T19:25:02.249Z,17.73
2023-05-09T19:27:28.967Z,17.74
2023-05-09T19:29:55.679Z,17.80
2023-05-09T19:32:22.421Z,17.54
2023-05-09T19:34:49.213Z,17.38
2023-05-09T19:37:15.985Z,17.52
2023-05-09T19:39:42.970Z,17.38
2023-05-09T19:42:09.986Z,17.36
2023-05-09T19:44:36.791Z,17.48
2023-05-09T19:47:05.483Z,17.38
2023-05-09T19:49:32.969Z,17.14
2023-05-09T19:51:59.788Z,17.17
2023-05-09T19:54:27.458Z,17.22
2023-05-09T19:56:54.251Z,17.18
2023-05-09T19:59:20.942Z,17.16
2023-05-09T20:01:47.742Z,17.15
2023-05-09T20:04:14.494Z,17.17
2023-05-09T20:06:41.481Z,16.77
2023-05-09T20:09:08.242Z,16.87
2023-05-09T20:11:34.948Z,16.97
2023-05-09T20:14:01.620Z,17.03
2023-05-09T20:16:28.808Z,16.80
2023-05-09T20:18:55.938Z,16.68
2023-05-09T20:21:22.640Z,16.55
2023-05-09T20:23:49.638Z,16.54
2023-05-09T20:26:16.438Z,16.70
2023-05-09T20:28:43.198Z,16.67
2023-05-09T20:31:09.964Z,16.29
2023-05-09T20:33:36.759Z,16.46
2023-05-09T20:36:03.714Z,16.45
2023-05-09T20:38:30.473Z,16.35
2023-05-09T20:40:57.256Z,16.40
2023-05-09T20:43:23.999Z,16.32
2023-05-09T20:45:52.129Z,16.12
2023-05-09T20:48:19.505Z,16.08
2023-05-09T20:50:46.656Z,16.18
2023-05-09T20:53:13.316Z,16.33
2023-05-09T20:55:39.996Z,16.26
2023-05-09T20:58:06.736Z,16.25
2023-05-09T21:00:33.788Z,16.21
2023-05-09T21:03:00.834Z,16.13
2023-05-09T21:05:27.628Z,16.35
2023-05-09T21:07:54.284Z,16.17
2023-05-09T21:10:21.037Z,16.19
2023-05-09T21:12:47.744Z,16.05
2023-05-09T21:15:14.432Z,16.24
2023-05-09T21:17:41.303Z,16.24
2023-05-09T21:20:09.139Z,16.14
2023-05-09T21:22:36.183Z,16.21
2023-05-09T21:25:02.901Z,16.18
2023-05-09T21:27:32.722Z,16.06
2023-05-09T21:29:59.475Z,16.19
2023-05-09T21:32:28.850Z,16.26
2023-05-09T21:34:55.702Z,16.15
2023-05-09T21:37:22.438Z,16.08
2023-05-09T21:39:49.175Z,16.11
2023-05-09T21:42:16.493Z,16.11
2023-05-09T21:44:43.468Z,16.20
2023-05-09T21:47:11.899Z,16.25
2023-05-09T21:49:39.058Z,16.25
2023-05-09T21:52:06.686Z,16.24
2023-05-09T21:54:33.468Z,16.33
2023-05-09T21:57:00.252Z,16.34
2023-05-09T21:59:27.218Z,16.36
2023-05-09T22:01:53.996Z,16.40
2023-05-09T22:04:21.276Z,16.47
2023-05-09T22:06:48.077Z,16.52
2023-05-09T22:09:15.396Z,16.55
2023-05-09T22:11:42.145Z,16.62
2023-05-09T22:14:10.478Z,16.69
2023-05-09T22:16:38.463Z,16.69
2023-05-09T22:19:05.433Z,16.70
2023-05-09T22:21:32.702Z,16.67
2023-05-09T22:23:59.372Z,16.62
2023-05-09T22:26:26.446Z,16.62
2023-05-09T22:28:53.242Z,16.56
2023-05-09T22:31:20.111Z,16.51
2023-05-09T22:33:46.934Z,16.65
2023-05-09T22:36:14.727Z,16.60
2023-05-09T22:38:41.450Z,16.69
2023-05-09T22:41:08.155Z,16.67
2023-05-09T22:43:39.207Z,16.68
2023-05-09T22:46:06.701Z,16.65
2023-05-09T22:48:33.536Z,16.67
2023-05-09T22:51:00.237Z,16.67
2023-05-09T22:53:26.930Z,16.67
2023-05-09T22:55:54.946Z,16.65
2023-05-09T22:58:21.635Z,16.63
2023-05-09T23:00:48.379Z,16.58
2023-05-09T23:03:15.167Z,16.55
2023-05-09T23:05:43.022Z,16.55
2023-05-09T23:08:10.032Z,16.50
2023-05-09T23:10:36.719Z,16.55
2023-05-09T23:13:05.002Z,16.54
2023-05-09T23:15:31.799Z,16.41
2023-05-09T23:17:58.698Z,16.44
2023-05-09T23:20:26.152Z,16.42
2023-05-09T23:22:52.892Z,16.39
2023-05-09T23:25:19.578Z,16.38
2023-05-09T23:27:47.148Z,16.32
2023-05-09T23:30:14.256Z,16.19
2023-05-09T23:32:41.212Z,16.18
2023-05-09T23:35:08.497Z,16.14
2023-05-09T23:37:35.224Z,16.13
2023-05-09T23:40:04.079Z,16.11
2023-05-09T23:42:31.168Z,16.07
2023-05-09T23:44:57.876Z,16.10
2023-05-09T23:47:24.688Z,16.10
2023-05-09T23:49:51.404Z,16.07
2023-05-09T23:52:18.198Z,15.97
2023-05-09T23:54:44.917Z,15.90
2023-05-09T23:57:11.610Z,15.83
2023-05-09T23:59:38.368Z,15.85
